LPHR/HOR METAR and TAF weather

Enter ICAO airport designator
Station Type Date Time Source
LPHR METAR 2019/07/18 10:30 UTC NOAA

LPHR 181030Z 26011KT 9999 FEW008 SCT011 BKN060 23/22 Q1025


Station Type Date Time Source
LPHR Decoded METAR 2019/07/18 10:30 UTC NOAA

Horta / Castelo Branco Acores , Portugal (LPHR) 38-31N 028-43W 41M
Jul 18, 2019 - 06:30 AM EDT / 2019.07.18 1030 UTC
Wind: from the W (260 degrees) at 13 MPH (11 KT):0
Visibility: greater than 7 mile(s):0
Sky conditions: mostly cloudy
Temperature: 73 F (23 C)
Dew Point: 71 F (22 C)
Relative Humidity: 94%
Pressure (altimeter): 30.27 in. Hg (1025 hPa)
ob: LPHR 181030Z 26011KT 9999 FEW008 SCT011 BKN060 23/22 Q1025
cycle: 10

Station Type Date Time Source
LPHR TAF 2018/09/06 09:00 UTC NOAA

TAF LPHR 060800Z 0609/0618 12010KT 9999 SCT018 SCT040 PROB30
TEMPO 0609/0618 5000 SHRA BKN015 FEW018CB
BECMG 0610/0612 18010KT

Example: see airport list